Time;durP1;ratioP1;P1;durP2;ratioP2;P2;SDS_P1;SDS_P2;PMS_P1;PMS_P2;Temp;Humidity;BMP_temperature;BMP_pressure;BME280_temperature;BME280_humidity;BME280_pressure;Samples;Min_cycle;Max_cycle;Signal;HPM_P1;HPM_P2
2023/05/30 00:00:47;;;;;;;10.73;1.03;;;;;;;;;;4955381;28;20042;-46
2023/05/30 00:03:15;;;;;;;5.88;1.05;;;;;;;;;;4952866;28;20964;-44
2023/05/30 00:05:43;;;;;;;7.90;1.30;;;;;;;;;;4957022;28;20460;-47
2023/05/30 00:08:12;;;;;;;3.38;0.80;;;;;;;;;;4956353;28;20039;-44
2023/05/30 00:10:39;;;;;;;11.38;1.23;;;;;;;;;;4958223;28;20043;-46
2023/05/30 00:13:08;;;;;;;4.13;0.70;;;;;;;;;;4954134;28;20042;-44
2023/05/30 00:15:37;;;;;;;6.80;0.95;;;;;;;;;;4953400;28;20034;-46
2023/05/30 00:18:05;;;;;;;6.07;0.50;;;;;;;;;;4944308;28;21573;-44
2023/05/30 00:20:34;;;;;;;9.73;0.90;;;;;;;;;;4967464;28;20125;-44
2023/05/30 00:23:02;;;;;;;18.05;1.65;;;;;;;;;;4960415;28;20060;-46
2023/05/30 00:25:32;;;;;;;6.17;0.83;;;;;;;;;;4950912;28;20061;-45
2023/05/30 00:28:00;;;;;;;6.40;0.73;;;;;;;;;;4929146;28;20606;-48
2023/05/30 00:30:31;;;;;;;12.13;0.90;;;;;;;;;;4954784;28;20050;-45
2023/05/30 00:33:00;;;;;;;8.35;0.70;;;;;;;;;;4951466;28;20041;-47
2023/05/30 00:35:28;;;;;;;9.70;0.95;;;;;;;;;;4963007;28;20207;-47
2023/05/30 00:37:56;;;;;;;4.83;0.97;;;;;;;;;;4934023;28;20035;-45
2023/05/30 00:40:24;;;;;;;9.60;1.20;;;;;;;;;;4939681;28;20039;-46
2023/05/30 00:42:53;;;;;;;7.55;1.20;;;;;;;;;;4965695;28;20225;-48
2023/05/30 00:45:21;;;;;;;5.65;0.95;;;;;;;;;;4956794;28;20045;-45
2023/05/30 00:47:51;;;;;;;8.90;1.00;;;;;;;;;;4956541;28;20050;-46
2023/05/30 00:50:21;;;;;;;8.57;0.90;;;;;;;;;;4931683;28;20494;-46
2023/05/30 00:52:49;;;;;;;13.45;1.05;;;;;;;;;;4961860;28;20116;-46
2023/05/30 00:55:17;;;;;;;9.55;1.25;;;;;;;;;;4946977;28;20259;-46
2023/05/30 00:57:46;;;;;;;5.50;0.90;;;;;;;;;;4958989;28;20494;-46
2023/05/30 01:00:15;;;;;;;6.70;0.88;;;;;;;;;;4956689;28;20497;-44
2023/05/30 01:02:44;;;;;;;8.03;1.27;;;;;;;;;;4961910;28;20051;-45
2023/05/30 01:05:14;;;;;;;5.85;1.30;;;;;;;;;;4963251;28;20464;-48
2023/05/30 01:07:44;;;;;;;7.57;0.57;;;;;;;;;;4963276;28;20077;-44
2023/05/30 01:10:12;;;;;;;6.03;1.10;;;;;;;;;;4952030;28;20448;-45
2023/05/30 01:12:43;;;;;;;9.43;0.90;;;;;;;;;;4955669;28;20081;-45
2023/05/30 01:15:15;;;;;;;8.50;1.17;;;;;;;;;;4949117;28;20133;-44
2023/05/30 01:17:50;;;;;;;10.45;0.95;;;;;;;;;;4952219;28;20043;-47
2023/05/30 01:20:20;;;;;;;6.80;0.95;;;;;;;;;;4962972;28;20034;-45
2023/05/30 01:22:57;;;;;;;6.35;0.90;;;;;;;;;;4956584;28;20050;-46
2023/05/30 01:25:28;;;;;;;8.07;1.65;;;;;;;;;;4960117;28;20067;-47
2023/05/30 01:28:04;;;;;;;8.63;0.90;;;;;;;;;;4941874;28;20132;-44
2023/05/30 01:30:33;;;;;;;5.80;0.90;;;;;;;;;;4960294;28;20043;-47
2023/05/30 01:33:02;;;;;;;12.73;1.20;;;;;;;;;;4955484;28;20042;-44
2023/05/30 01:35:33;;;;;;;13.52;0.90;;;;;;;;;;4950604;28;20043;-45
2023/05/30 01:38:01;;;;;;;11.85;1.30;;;;;;;;;;4953977;28;20403;-46
2023/05/30 01:40:29;;;;;;;13.17;1.13;;;;;;;;;;4948924;28;20101;-44
2023/05/30 01:42:58;;;;;;;10.25;1.17;;;;;;;;;;4966890;28;20531;-47
2023/05/30 01:45:35;;;;;;;3.40;0.60;;;;;;;;;;4942474;28;21367;-44
2023/05/30 01:48:06;;;;;;;7.32;1.00;;;;;;;;;;4958033;28;20042;-45
2023/05/30 01:50:37;;;;;;;6.38;0.90;;;;;;;;;;4953559;28;20057;-44
2023/05/30 01:53:10;;;;;;;8.40;1.30;;;;;;;;;;4966084;28;20409;-47
2023/05/30 01:55:44;;;;;;;5.10;1.13;;;;;;;;;;4947969;28;20547;-44
2023/05/30 01:58:14;;;;;;;7.40;1.30;;;;;;;;;;4952606;28;20046;-46
2023/05/30 02:00:45;;;;;;;5.05;0.77;;;;;;;;;;4930787;28;20038;-45
2023/05/30 02:03:13;;;;;;;6.30;1.38;;;;;;;;;;4968452;28;20038;-45
2023/05/30 02:05:42;;;;;;;11.90;1.37;;;;;;;;;;4957150;28;20035;-43
2023/05/30 02:08:11;;;;;;;6.13;0.90;;;;;;;;;;4952909;28;20041;-46
2023/05/30 02:10:38;;;;;;;9.85;1.50;;;;;;;;;;4951465;28;20038;-46
2023/05/30 02:13:06;;;;;;;8.35;1.33;;;;;;;;;;4955882;28;20078;-44
2023/05/30 02:15:34;;;;;;;12.50;1.25;;;;;;;;;;4954080;28;20045;-44
2023/05/30 02:18:04;;;;;;;11.07;1.37;;;;;;;;;;4952588;28;20047;-44
2023/05/30 02:20:32;;;;;;;6.68;0.70;;;;;;;;;;4950492;28;20071;-45
2023/05/30 02:23:00;;;;;;;6.40;0.73;;;;;;;;;;4948163;28;20889;-46
2023/05/30 02:25:28;;;;;;;6.65;0.65;;;;;;;;;;4934970;28;20066;-44
2023/05/30 02:27:55;;;;;;;7.63;0.90;;;;;;;;;;4924563;28;20043;-44
2023/05/30 02:30:23;;;;;;;6.50;1.10;;;;;;;;;;4920985;28;20044;-44
2023/05/30 02:32:51;;;;;;;5.97;1.33;;;;;;;;;;4912527;28;20043;-44
2023/05/30 02:35:22;;;;;;;8.52;1.23;;;;;;;;;;4928944;28;20043;-44
2023/05/30 02:37:51;;;;;;;8.85;1.10;;;;;;;;;;4890040;28;20609;-44
2023/05/30 02:40:18;;;;;;;11.48;1.08;;;;;;;;;;4913816;28;20102;-44
2023/05/30 02:42:46;;;;;;;9.10;1.27;;;;;;;;;;4915763;28;20568;-46
2023/05/30 02:45:15;;;;;;;12.43;1.60;;;;;;;;;;4917505;28;20113;-45
2023/05/30 02:47:42;;;;;;;5.65;1.15;;;;;;;;;;4913752;28;20043;-46
2023/05/30 02:50:11;;;;;;;6.55;0.88;;;;;;;;;;4917537;28;20044;-44
2023/05/30 02:52:41;;;;;;;5.88;0.77;;;;;;;;;;4910069;28;20553;-45
2023/05/30 02:55:08;;;;;;;12.23;1.20;;;;;;;;;;4922624;28;20066;-45
2023/05/30 02:57:36;;;;;;;8.40;1.42;;;;;;;;;;4915558;28;20035;-45
2023/05/30 03:00:07;;;;;;;6.72;1.00;;;;;;;;;;4916209;28;20054;-45
2023/05/30 03:02:35;;;;;;;4.85;0.90;;;;;;;;;;4886283;28;20043;-44
2023/05/30 03:05:03;;;;;;;10.48;1.58;;;;;;;;;;4926392;28;20077;-44
2023/05/30 03:07:32;;;;;;;14.90;0.90;;;;;;;;;;4911590;28;20486;-44
2023/05/30 03:10:01;;;;;;;10.88;1.15;;;;;;;;;;4913601;28;20043;-45
2023/05/30 03:12:29;;;;;;;8.35;1.08;;;;;;;;;;4906758;28;20067;-44
2023/05/30 03:14:57;;;;;;;7.75;1.10;;;;;;;;;;4917003;28;20059;-46
2023/05/30 03:17:25;;;;;;;7.60;1.15;;;;;;;;;;4903157;28;20052;-44
2023/05/30 03:19:53;;;;;;;8.30;1.30;;;;;;;;;;4929230;28;20525;-45
2023/05/30 03:22:22;;;;;;;9.30;1.55;;;;;;;;;;4900554;28;20054;-45
2023/05/30 03:24:49;;;;;;;5.78;1.30;;;;;;;;;;4926213;28;20059;-47
2023/05/30 03:27:19;;;;;;;7.70;1.02;;;;;;;;;;4936430;28;20046;-45
2023/05/30 03:29:48;;;;;;;8.07;1.52;;;;;;;;;;4965847;28;20039;-45
2023/05/30 03:32:16;;;;;;;8.27;1.00;;;;;;;;;;4956802;28;20051;-46
2023/05/30 03:34:45;;;;;;;10.65;0.95;;;;;;;;;;4954111;28;20045;-44
2023/05/30 03:37:13;;;;;;;7.30;1.38;;;;;;;;;;4940702;28;20093;-47
2023/05/30 03:39:41;;;;;;;8.73;1.20;;;;;;;;;;4952956;28;20034;-44
2023/05/30 03:42:09;;;;;;;12.82;1.30;;;;;;;;;;4933854;28;20047;-44
2023/05/30 03:44:39;;;;;;;11.43;1.30;;;;;;;;;;4962536;28;20081;-45
2023/05/30 03:47:08;;;;;;;6.82;1.20;;;;;;;;;;4963107;28;20042;-47
2023/05/30 03:49:35;;;;;;;9.13;1.40;;;;;;;;;;4952362;28;20038;-44
2023/05/30 03:52:03;;;;;;;8.73;1.40;;;;;;;;;;4953358;28;20884;-44
2023/05/30 03:54:31;;;;;;;8.57;1.30;;;;;;;;;;4965469;28;20057;-44
2023/05/30 03:57:00;;;;;;;9.83;1.33;;;;;;;;;;4953603;28;20101;-44
2023/05/30 03:59:28;;;;;;;7.75;1.25;;;;;;;;;;4960923;28;20688;-44
2023/05/30 04:01:57;;;;;;;10.07;1.20;;;;;;;;;;4959389;28;20525;-45
2023/05/30 04:04:26;;;;;;;8.45;2.13;;;;;;;;;;4953083;28;20050;-48
2023/05/30 04:07:03;;;;;;;9.88;1.30;;;;;;;;;;4962582;28;20129;-44
2023/05/30 04:09:31;;;;;;;7.40;1.00;;;;;;;;;;4945686;28;20125;-44
2023/05/30 04:12:01;;;;;;;11.80;1.30;;;;;;;;;;4966413;28;20039;-46
2023/05/30 04:14:28;;;;;;;6.05;1.35;;;;;;;;;;4939678;28;20058;-45
2023/05/30 04:16:58;;;;;;;6.63;1.35;;;;;;;;;;4969387;28;20042;-45
2023/05/30 04:19:25;;;;;;;7.97;1.20;;;;;;;;;;4952118;28;20854;-45
2023/05/30 04:21:53;;;;;;;10.47;1.63;;;;;;;;;;4943039;28;20464;-45
2023/05/30 04:24:22;;;;;;;8.07;1.40;;;;;;;;;;4945075;28;20097;-45
2023/05/30 04:26:50;;;;;;;6.40;1.58;;;;;;;;;;4965009;28;20062;-47
2023/05/30 04:29:20;;;;;;;6.63;1.23;;;;;;;;;;4940513;28;20043;-48
2023/05/30 04:31:51;;;;;;;12.63;1.70;;;;;;;;;;4963315;28;20400;-46
2023/05/30 04:34:22;;;;;;;6.53;1.50;;;;;;;;;;4955760;28;20040;-46
2023/05/30 04:36:53;;;;;;;10.85;1.17;;;;;;;;;;4964102;28;20046;-47
2023/05/30 04:39:22;;;;;;;6.80;1.48;;;;;;;;;;4950140;28;20480;-45
2023/05/30 04:41:54;;;;;;;7.10;1.48;;;;;;;;;;4959757;28;20042;-44
2023/05/30 04:44:23;;;;;;;8.77;1.50;;;;;;;;;;4954374;28;20493;-46
2023/05/30 04:46:51;;;;;;;6.47;1.53;;;;;;;;;;4962453;28;20050;-44
2023/05/30 04:49:18;;;;;;;12.98;1.55;;;;;;;;;;4947115;28;20802;-47
2023/05/30 04:51:48;;;;;;;12.52;1.98;;;;;;;;;;4952135;28;20758;-44
2023/05/30 04:54:16;;;;;;;6.75;1.60;;;;;;;;;;4960968;28;20106;-47
2023/05/30 04:56:43;;;;;;;13.93;1.50;;;;;;;;;;4939767;28;20046;-45
2023/05/30 04:59:12;;;;;;;11.40;1.37;;;;;;;;;;4966378;28;20042;-46
2023/05/30 05:01:41;;;;;;;16.73;1.65;;;;;;;;;;4942039;28;20077;-45
2023/05/30 05:04:09;;;;;;;9.48;1.50;;;;;;;;;;4953614;28;20046;-45
2023/05/30 05:06:37;;;;;;;10.65;1.58;;;;;;;;;;4947362;28;20034;-45
2023/05/30 05:09:07;;;;;;;8.63;2.17;;;;;;;;;;4963835;28;20408;-45
2023/05/30 05:11:37;;;;;;;7.40;1.47;;;;;;;;;;4965555;28;20045;-45
2023/05/30 05:14:08;;;;;;;14.75;1.58;;;;;;;;;;4958236;28;20043;-44
2023/05/30 05:16:35;;;;;;;12.50;1.30;;;;;;;;;;4960095;28;20043;-44
2023/05/30 05:19:03;;;;;;;10.68;1.45;;;;;;;;;;4951007;28;20486;-47
2023/05/30 05:21:32;;;;;;;6.07;1.67;;;;;;;;;;4949749;28;20043;-46
2023/05/30 05:24:00;;;;;;;7.77;1.30;;;;;;;;;;4953764;28;20631;-45
2023/05/30 05:26:29;;;;;;;5.22;1.33;;;;;;;;;;4945403;28;20058;-44
2023/05/30 05:28:58;;;;;;;11.52;1.90;;;;;;;;;;4959108;28;20038;-44
2023/05/30 05:31:25;;;;;;;7.45;1.52;;;;;;;;;;4946583;28;20038;-45
2023/05/30 05:33:53;;;;;;;10.57;1.30;;;;;;;;;;4952666;28;20062;-44
2023/05/30 05:36:22;;;;;;;7.90;1.53;;;;;;;;;;4960850;28;20069;-45
2023/05/30 05:38:50;;;;;;;9.02;1.67;;;;;;;;;;4952250;28;20070;-46
2023/05/30 05:41:17;;;;;;;12.27;1.50;;;;;;;;;;4964572;28;20101;-44
2023/05/30 05:43:47;;;;;;;10.88;1.75;;;;;;;;;;4952230;28;21245;-45
2023/05/30 05:46:15;;;;;;;7.13;1.75;;;;;;;;;;4952667;28;20101;-44
2023/05/30 05:48:42;;;;;;;9.43;1.30;;;;;;;;;;4949604;28;20046;-44
2023/05/30 05:51:11;;;;;;;9.73;1.50;;;;;;;;;;4966114;28;20501;-47
2023/05/30 05:53:40;;;;;;;8.15;1.50;;;;;;;;;;4948839;28;20523;-46
2023/05/30 05:56:07;;;;;;;10.40;1.40;;;;;;;;;;4958981;28;20046;-45
2023/05/30 05:58:37;;;;;;;6.53;1.30;;;;;;;;;;4938800;28;20049;-46
2023/05/30 06:01:07;;;;;;;8.80;1.60;;;;;;;;;;4963300;28;20043;-45
2023/05/30 06:03:35;;;;;;;11.55;1.80;;;;;;;;;;4954870;28;20043;-45
2023/05/30 06:06:06;;;;;;;5.95;1.00;;;;;;;;;;4939423;28;20234;-46
2023/05/30 06:08:33;;;;;;;11.85;1.70;;;;;;;;;;4967606;28;20042;-44
2023/05/30 06:11:01;;;;;;;9.93;1.30;;;;;;;;;;4954813;28;20045;-44
2023/05/30 06:13:30;;;;;;;10.43;1.57;;;;;;;;;;4946844;28;20058;-46
2023/05/30 06:15:58;;;;;;;10.85;1.55;;;;;;;;;;4962908;28;20042;-45
2023/05/30 06:18:27;;;;;;;7.55;1.00;;;;;;;;;;4955004;28;20283;-44
2023/05/30 06:20:56;;;;;;;8.90;1.77;;;;;;;;;;4966962;28;20250;-44
2023/05/30 06:23:24;;;;;;;7.15;1.55;;;;;;;;;;4939741;28;20485;-46
2023/05/30 06:25:52;;;;;;;9.23;1.40;;;;;;;;;;4964699;28;20057;-45
2023/05/30 06:28:21;;;;;;;12.45;1.48;;;;;;;;;;4954655;28;20108;-48
2023/05/30 06:30:49;;;;;;;11.95;1.55;;;;;;;;;;4950499;28;20039;-46
2023/05/30 06:33:20;;;;;;;7.95;2.20;;;;;;;;;;4959221;28;20046;-45
2023/05/30 06:35:50;;;;;;;10.18;1.85;;;;;;;;;;4961216;28;20031;-45
2023/05/30 06:38:19;;;;;;;8.50;1.90;;;;;;;;;;4962135;28;20046;-44
2023/05/30 06:40:47;;;;;;;10.70;1.70;;;;;;;;;;4955898;28;20472;-45
2023/05/30 06:43:15;;;;;;;8.13;1.60;;;;;;;;;;4949788;28;20061;-45
2023/05/30 06:45:44;;;;;;;15.80;1.90;;;;;;;;;;4950417;28;20035;-47
2023/05/30 06:48:12;;;;;;;10.18;1.85;;;;;;;;;;4956403;28;20124;-48
2023/05/30 06:50:41;;;;;;;10.93;1.50;;;;;;;;;;4961286;28;20046;-44
2023/05/30 06:53:09;;;;;;;6.30;1.75;;;;;;;;;;4949025;28;20042;-45
2023/05/30 06:55:37;;;;;;;11.32;1.90;;;;;;;;;;4958704;28;20126;-45
2023/05/30 06:58:07;;;;;;;14.80;2.20;;;;;;;;;;4945989;28;20043;-47
2023/05/30 07:00:34;;;;;;;13.73;1.70;;;;;;;;;;4946888;28;20165;-45
2023/05/30 07:03:02;;;;;;;8.37;1.70;;;;;;;;;;4944933;28;20038;-44
2023/05/30 07:05:30;;;;;;;8.45;1.45;;;;;;;;;;4968253;28;20050;-45
2023/05/30 07:07:58;;;;;;;8.65;1.38;;;;;;;;;;4945963;28;20050;-45
2023/05/30 07:10:27;;;;;;;10.25;1.63;;;;;;;;;;4962804;28;20038;-46
2023/05/30 07:12:56;;;;;;;6.63;1.65;;;;;;;;;;4956308;28;20050;-43
2023/05/30 07:15:25;;;;;;;6.90;1.43;;;;;;;;;;4949362;28;20054;-45
2023/05/30 07:17:53;;;;;;;6.85;1.88;;;;;;;;;;4953391;28;20054;-44
2023/05/30 07:20:23;;;;;;;8.27;1.77;;;;;;;;;;4958807;28;20081;-45
2023/05/30 07:22:51;;;;;;;7.97;1.90;;;;;;;;;;4948874;28;20042;-45
2023/05/30 07:25:20;;;;;;;8.27;2.17;;;;;;;;;;4954151;28;20099;-45
2023/05/30 07:27:50;;;;;;;8.17;1.70;;;;;;;;;;4957615;28;20049;-44
2023/05/30 07:30:18;;;;;;;5.57;1.70;;;;;;;;;;4958163;28;20050;-44
2023/05/30 07:32:46;;;;;;;5.95;2.05;;;;;;;;;;4959343;28;20870;-46
2023/05/30 07:35:15;;;;;;;8.15;2.00;;;;;;;;;;4967539;28;20050;-47
2023/05/30 07:37:43;;;;;;;11.90;2.03;;;;;;;;;;4949572;28;20034;-46
2023/05/30 07:40:17;;;;;;;8.87;1.47;;;;;;;;;;4968644;28;20050;-46
2023/05/30 07:42:47;;;;;;;7.75;1.88;;;;;;;;;;4956896;28;20034;-45
2023/05/30 07:45:17;;;;;;;8.93;1.85;;;;;;;;;;4953863;28;20042;-45
2023/05/30 07:47:47;;;;;;;10.45;2.30;;;;;;;;;;4947978;28;20097;-44
2023/05/30 07:50:14;;;;;;;6.35;1.65;;;;;;;;;;4959042;28;20133;-47
2023/05/30 07:52:42;;;;;;;6.43;1.13;;;;;;;;;;4955755;28;20038;-46
2023/05/30 07:55:12;;;;;;;7.57;1.98;;;;;;;;;;4926296;28;20089;-45
2023/05/30 07:57:40;;;;;;;5.97;1.70;;;;;;;;;;4951610;28;20440;-45
2023/05/30 08:00:08;;;;;;;7.30;1.80;;;;;;;;;;4940839;28;20046;-44
2023/05/30 08:02:38;;;;;;;8.35;1.83;;;;;;;;;;4954873;28;20046;-47
2023/05/30 08:05:08;;;;;;;8.67;2.20;;;;;;;;;;4947713;28;20655;-44
2023/05/30 08:07:36;;;;;;;9.10;2.05;;;;;;;;;;4936231;28;20445;-44
2023/05/30 08:10:07;;;;;;;7.10;2.08;;;;;;;;;;4936130;28;20074;-46
2023/05/30 08:12:35;;;;;;;7.78;1.80;;;;;;;;;;4953771;28;20058;-44
2023/05/30 08:15:03;;;;;;;8.70;1.80;;;;;;;;;;4937186;28;20897;-44
2023/05/30 08:17:33;;;;;;;6.87;1.27;;;;;;;;;;4944286;28;20034;-46
2023/05/30 08:20:03;;;;;;;6.65;1.50;;;;;;;;;;4941638;28;20424;-44
2023/05/30 08:22:33;;;;;;;8.55;1.77;;;;;;;;;;4942345;28;20527;-47
2023/05/30 08:25:02;;;;;;;10.85;1.90;;;;;;;;;;4945187;28;20086;-44
2023/05/30 08:27:31;;;;;;;6.80;1.50;;;;;;;;;;4948926;28;20046;-45
2023/05/30 08:30:01;;;;;;;6.53;1.80;;;;;;;;;;4953355;28;20061;-45
2023/05/30 08:32:28;;;;;;;6.57;1.50;;;;;;;;;;4941134;28;20572;-46
2023/05/30 08:34:56;;;;;;;5.00;1.55;;;;;;;;;;4956335;28;20120;-45
2023/05/30 08:37:27;;;;;;;8.15;1.38;;;;;;;;;;4939978;28;20063;-46
2023/05/30 08:39:54;;;;;;;5.88;1.80;;;;;;;;;;4945675;28;20035;-45
2023/05/30 08:42:22;;;;;;;7.93;1.73;;;;;;;;;;4926524;28;20042;-44
2023/05/30 08:44:51;;;;;;;5.82;1.20;;;;;;;;;;4946088;28;20476;-46
2023/05/30 08:47:20;;;;;;;7.55;1.67;;;;;;;;;;4934884;28;20126;-44
2023/05/30 08:49:52;;;;;;;6.95;2.15;;;;;;;;;;4919724;28;20421;-44
2023/05/30 08:52:20;;;;;;;8.02;2.10;;;;;;;;;;4948802;28;20043;-45
2023/05/30 08:54:55;;;;;;;7.67;1.80;;;;;;;;;;4943835;28;20058;-44
2023/05/30 08:57:24;;;;;;;10.40;1.80;;;;;;;;;;4945879;28;20054;-45
2023/05/30 08:59:53;;;;;;;6.63;1.60;;;;;;;;;;4935231;28;20252;-45
2023/05/30 09:02:21;;;;;;;5.68;1.67;;;;;;;;;;4951841;28;20061;-47
2023/05/30 09:04:52;;;;;;;7.15;1.70;;;;;;;;;;4923223;28;20062;-44
2023/05/30 09:07:21;;;;;;;5.33;1.73;;;;;;;;;;4951694;28;20050;-45
2023/05/30 09:09:50;;;;;;;5.72;1.75;;;;;;;;;;4929538;28;20042;-48
2023/05/30 09:12:18;;;;;;;7.57;1.40;;;;;;;;;;4938814;28;20050;-46
2023/05/30 09:14:46;;;;;;;5.22;1.35;;;;;;;;;;4952317;28;20046;-46
2023/05/30 09:17:14;;;;;;;9.98;1.77;;;;;;;;;;4939156;28;20068;-44
2023/05/30 09:19:44;;;;;;;7.63;1.23;;;;;;;;;;4944262;28;20154;-44
2023/05/30 09:22:13;;;;;;;5.53;1.25;;;;;;;;;;4945942;28;20775;-44
2023/05/30 09:24:57;;;;;;;8.75;1.30;;;;;;;;;;4941880;28;20056;-45
2023/05/30 09:27:27;;;;;;;4.93;1.45;;;;;;;;;;4917961;29;20054;-47
2023/05/30 09:29:56;;;;;;;6.05;1.45;;;;;;;;;;4889734;29;20552;-45
2023/05/30 09:32:28;;;;;;;7.53;1.70;;;;;;;;;;4916099;29;20506;-45
2023/05/30 09:34:57;;;;;;;4.97;1.50;;;;;;;;;;4905727;29;20388;-45
2023/05/30 09:37:25;;;;;;;10.73;1.42;;;;;;;;;;4896665;28;20051;-44
2023/05/30 09:40:12;;;;;;;7.22;1.67;;;;;;;;;;4908911;29;20058;-46
2023/05/30 09:42:44;;;;;;;6.60;1.40;;;;;;;;;;4926943;29;20040;-44
2023/05/30 09:45:13;;;;;;;7.47;1.57;;;;;;;;;;4918352;28;20092;-45
2023/05/30 09:47:42;;;;;;;9.23;2.00;;;;;;;;;;4919948;28;20055;-44
2023/05/30 09:50:11;;;;;;;9.40;1.60;;;;;;;;;;4911853;29;20638;-45
2023/05/30 09:52:41;;;;;;;9.25;1.88;;;;;;;;;;4931160;28;20044;-44
2023/05/30 09:55:09;;;;;;;5.18;1.30;;;;;;;;;;4905816;29;20105;-45
2023/05/30 09:57:40;;;;;;;10.20;1.50;;;;;;;;;;4916981;29;20493;-45
2023/05/30 10:00:13;;;;;;;10.68;1.70;;;;;;;;;;4916452;28;20039;-46
2023/05/30 10:02:44;;;;;;;8.70;1.98;;;;;;;;;;4928540;29;20511;-46
2023/05/30 10:05:18;;;;;;;8.82;1.73;;;;;;;;;;4903236;28;20058;-49
2023/05/30 10:07:48;;;;;;;6.38;1.33;;;;;;;;;;4919536;29;20035;-49
2023/05/30 10:10:16;;;;;;;9.60;1.60;;;;;;;;;;4919920;28;20514;-47
2023/05/30 10:12:47;;;;;;;10.32;1.60;;;;;;;;;;4915390;28;20047;-46
2023/05/30 10:15:16;;;;;;;5.55;1.10;;;;;;;;;;4900924;28;20409;-48
2023/05/30 10:17:46;;;;;;;6.38;1.23;;;;;;;;;;4916492;29;20042;-47
2023/05/30 10:20:15;;;;;;;9.50;1.83;;;;;;;;;;4906594;29;20106;-49
2023/05/30 10:22:45;;;;;;;5.77;1.23;;;;;;;;;;4921920;29;20134;-44
2023/05/30 10:25:13;;;;;;;6.72;1.42;;;;;;;;;;4911076;28;20050;-45
2023/05/30 10:27:44;;;;;;;11.82;1.48;;;;;;;;;;4968016;28;20201;-49
2023/05/30 10:30:21;;;;;;;8.05;1.30;;;;;;;;;;4949166;28;20074;-46
2023/05/30 10:32:51;;;;;;;9.38;1.48;;;;;;;;;;4951812;28;20052;-45
2023/05/30 10:35:20;;;;;;;9.87;1.83;;;;;;;;;;4969129;28;20104;-47
2023/05/30 10:37:50;;;;;;;10.65;1.70;;;;;;;;;;4954509;28;20035;-45
2023/05/30 10:40:24;;;;;;;7.03;1.10;;;;;;;;;;4960764;28;20043;-46
2023/05/30 10:42:57;;;;;;;4.90;1.20;;;;;;;;;;4960866;28;20121;-45
2023/05/30 10:45:28;;;;;;;6.32;1.08;;;;;;;;;;4957438;28;20886;-47
2023/05/30 10:48:00;;;;;;;6.13;1.10;;;;;;;;;;4949145;28;20073;-44
2023/05/30 10:50:31;;;;;;;5.25;1.33;;;;;;;;;;4952446;28;20121;-46
2023/05/30 10:52:59;;;;;;;8.80;1.55;;;;;;;;;;4949199;28;20038;-44
2023/05/30 10:55:27;;;;;;;7.85;1.67;;;;;;;;;;4952046;28;20081;-44
2023/05/30 10:58:00;;;;;;;12.50;1.48;;;;;;;;;;4958431;28;20042;-45
2023/05/30 11:00:31;;;;;;;5.07;1.30;;;;;;;;;;4946778;28;20043;-45
2023/05/30 11:03:00;;;;;;;8.35;1.30;;;;;;;;;;4946145;28;20046;-45
2023/05/30 11:05:30;;;;;;;5.07;1.30;;;;;;;;;;4957347;28;20043;-46
2023/05/30 11:08:01;;;;;;;4.20;1.08;;;;;;;;;;4944294;28;20825;-46
2023/05/30 11:10:29;;;;;;;5.18;1.50;;;;;;;;;;4940486;28;20038;-45
2023/05/30 11:13:07;;;;;;;5.70;1.30;;;;;;;;;;4948581;28;20125;-44
2023/05/30 11:15:37;;;;;;;7.30;1.10;;;;;;;;;;4941169;28;21539;-45
2023/05/30 11:18:15;;;;;;;5.32;1.05;;;;;;;;;;4946336;28;20038;-44
2023/05/30 11:20:51;;;;;;;4.88;1.10;;;;;;;;;;4947276;28;20391;-45
2023/05/30 11:23:22;;;;;;;9.13;1.50;;;;;;;;;;4954503;28;20073;-45
2023/05/30 11:25:52;;;;;;;6.80;1.60;;;;;;;;;;4954333;28;20058;-45
2023/05/30 11:28:33;;;;;;;4.75;1.40;;;;;;;;;;4943124;28;20053;-45
2023/05/30 11:31:14;;;;;;;8.73;1.20;;;;;;;;;;4965694;28;20037;-46
2023/05/30 11:33:42;;;;;;;10.77;1.60;;;;;;;;;;4940674;28;20054;-44
2023/05/30 11:36:12;;;;;;;5.93;1.08;;;;;;;;;;4956545;28;20042;-44
2023/05/30 11:38:44;;;;;;;6.57;1.63;;;;;;;;;;4955701;28;20046;-46
2023/05/30 11:41:13;;;;;;;4.32;1.10;;;;;;;;;;4961664;28;20046;-44
2023/05/30 11:43:42;;;;;;;6.72;1.40;;;;;;;;;;4938562;28;20043;-45
2023/05/30 11:46:11;;;;;;;5.90;1.48;;;;;;;;;;4962034;28;20120;-46
2023/05/30 11:48:41;;;;;;;5.68;1.67;;;;;;;;;;4968706;28;20218;-47
2023/05/30 11:51:08;;;;;;;5.73;1.70;;;;;;;;;;4956876;28;20035;-46
2023/05/30 11:53:36;;;;;;;5.57;1.50;;;;;;;;;;4943753;28;20070;-44
2023/05/30 11:56:05;;;;;;;4.35;1.17;;;;;;;;;;4952440;28;20047;-45
2023/05/30 11:58:33;;;;;;;5.43;1.30;;;;;;;;;;4932843;28;20046;-46
2023/05/30 12:01:01;;;;;;;7.72;1.88;;;;;;;;;;4962736;28;20061;-48
2023/05/30 12:03:33;;;;;;;8.30;1.93;;;;;;;;;;4947483;28;20155;-45
2023/05/30 12:06:10;;;;;;;5.15;1.70;;;;;;;;;;4941186;28;20402;-46
2023/05/30 12:08:40;;;;;;;5.68;1.50;;;;;;;;;;4956557;28;20490;-45
2023/05/30 12:11:07;;;;;;;10.30;2.70;;;;;;;;;;4960213;28;20045;-46
2023/05/30 12:13:35;;;;;;;7.80;2.58;;;;;;;;;;4944596;28;20591;-46
2023/05/30 12:16:05;;;;;;;8.37;2.20;;;;;;;;;;4958060;28;20050;-44
2023/05/30 12:18:35;;;;;;;6.80;2.55;;;;;;;;;;4946724;28;20042;-45
2023/05/30 12:21:04;;;;;;;11.27;3.03;;;;;;;;;;4962987;28;20050;-44
2023/05/30 12:23:33;;;;;;;9.57;2.80;;;;;;;;;;4958306;28;20061;-45
2023/05/30 12:26:01;;;;;;;9.45;3.30;;;;;;;;;;4957480;28;20823;-46
2023/05/30 12:28:28;;;;;;;7.53;2.90;;;;;;;;;;4940061;28;20800;-44
2023/05/30 12:30:57;;;;;;;7.35;3.05;;;;;;;;;;4950635;28;20042;-44
2023/05/30 12:33:27;;;;;;;7.43;2.90;;;;;;;;;;4957103;28;20073;-45
2023/05/30 12:35:57;;;;;;;7.55;2.30;;;;;;;;;;4947618;28;20681;-45
2023/05/30 12:38:26;;;;;;;10.85;3.10;;;;;;;;;;4956890;28;20038;-48
2023/05/30 12:40:56;;;;;;;4.70;2.10;;;;;;;;;;4954298;28;20508;-46
2023/05/30 12:43:30;;;;;;;5.70;1.90;;;;;;;;;;4961090;28;20045;-44
2023/05/30 12:46:01;;;;;;;7.38;1.90;;;;;;;;;;4955388;28;20058;-47
2023/05/30 12:48:29;;;;;;;6.50;1.95;;;;;;;;;;4959058;28;20049;-48
2023/05/30 12:50:59;;;;;;;5.72;1.58;;;;;;;;;;4959449;28;20053;-45
2023/05/30 12:53:28;;;;;;;4.93;1.33;;;;;;;;;;4948950;28;20044;-46
2023/05/30 12:55:56;;;;;;;5.43;1.58;;;;;;;;;;4969286;28;20630;-45
2023/05/30 12:58:24;;;;;;;7.95;2.08;;;;;;;;;;4947172;28;20559;-46
2023/05/30 13:00:54;;;;;;;6.82;2.20;;;;;;;;;;4959095;28;20050;-44
2023/05/30 13:03:22;;;;;;;7.57;2.25;;;;;;;;;;4955579;28;20046;-45
2023/05/30 13:05:51;;;;;;;7.90;1.77;;;;;;;;;;4957081;28;20041;-44
2023/05/30 13:08:20;;;;;;;7.05;2.05;;;;;;;;;;4949205;28;20043;-44
2023/05/30 13:10:48;;;;;;;6.10;2.53;;;;;;;;;;4959508;28;20034;-43
2023/05/30 13:13:16;;;;;;;6.15;2.70;;;;;;;;;;4948585;28;20073;-44
2023/05/30 13:15:45;;;;;;;9.27;2.88;;;;;;;;;;4955166;28;20351;-44
2023/05/30 13:18:12;;;;;;;8.00;2.50;;;;;;;;;;4956167;28;20093;-44
2023/05/30 13:20:41;;;;;;;9.75;3.35;;;;;;;;;;4952969;28;20485;-44
2023/05/30 13:23:10;;;;;;;7.07;2.83;;;;;;;;;;4948497;28;20035;-44
2023/05/30 13:25:41;;;;;;;7.93;3.17;;;;;;;;;;4957926;28;20132;-44
2023/05/30 13:28:08;;;;;;;11.00;3.40;;;;;;;;;;4961578;28;20055;-52
2023/05/30 13:30:36;;;;;;;8.50;3.47;;;;;;;;;;4919220;28;20528;-44
2023/05/30 13:33:05;;;;;;;7.97;3.40;;;;;;;;;;4961499;28;20041;-44
2023/05/30 13:35:33;;;;;;;9.82;3.28;;;;;;;;;;4951079;28;20104;-44
2023/05/30 13:38:01;;;;;;;6.88;2.90;;;;;;;;;;4970994;28;20053;-48
2023/05/30 13:40:28;;;;;;;6.32;2.50;;;;;;;;;;4955583;28;20219;-44
2023/05/30 13:42:58;;;;;;;6.73;2.50;;;;;;;;;;4962329;28;20395;-44
2023/05/30 13:45:26;;;;;;;5.57;2.17;;;;;;;;;;4955998;28;20049;-43
2023/05/30 13:47:54;;;;;;;8.13;2.08;;;;;;;;;;4958146;28;20062;-44
2023/05/30 13:50:24;;;;;;;8.80;1.52;;;;;;;;;;4944018;28;20046;-44
2023/05/30 13:52:52;;;;;;;5.32;1.92;;;;;;;;;;4957586;28;20049;-44
2023/05/30 13:55:20;;;;;;;5.53;2.07;;;;;;;;;;4954169;28;20677;-44
2023/05/30 13:57:48;;;;;;;9.48;2.45;;;;;;;;;;4962364;28;20137;-44
2023/05/30 14:00:22;;;;;;;7.05;2.20;;;;;;;;;;4939027;28;20057;-44
2023/05/30 14:02:50;;;;;;;7.32;3.00;;;;;;;;;;4962247;28;20490;-44
2023/05/30 14:05:19;;;;;;;9.43;2.60;;;;;;;;;;4940684;28;20085;-46
2023/05/30 14:07:48;;;;;;;8.40;2.40;;;;;;;;;;4936030;28;20113;-44
2023/05/30 14:10:18;;;;;;;9.50;3.33;;;;;;;;;;4954255;28;20050;-44
2023/05/30 14:12:46;;;;;;;10.02;2.97;;;;;;;;;;4956322;28;20050;-45
2023/05/30 14:15:14;;;;;;;12.25;3.33;;;;;;;;;;4959641;28;20042;-44
2023/05/30 14:17:44;;;;;;;9.70;3.67;;;;;;;;;;4949942;28;20045;-45
2023/05/30 14:20:13;;;;;;;9.47;3.17;;;;;;;;;;4951417;28;20054;-44
2023/05/30 14:22:41;;;;;;;8.68;3.00;;;;;;;;;;4959490;28;20109;-46
2023/05/30 14:25:10;;;;;;;6.32;2.67;;;;;;;;;;4943902;28;20046;-44
2023/05/30 14:27:38;;;;;;;11.77;3.00;;;;;;;;;;4956163;28;20037;-44
2023/05/30 14:30:12;;;;;;;8.45;2.95;;;;;;;;;;4954033;28;20130;-45
2023/05/30 14:32:44;;;;;;;7.27;2.83;;;;;;;;;;4933338;28;20038;-45
2023/05/30 14:35:13;;;;;;;7.80;3.10;;;;;;;;;;4958530;28;20109;-44
2023/05/30 14:37:44;;;;;;;10.50;3.30;;;;;;;;;;4942562;28;20073;-43
2023/05/30 14:40:16;;;;;;;6.13;2.60;;;;;;;;;;4961019;28;20646;-46
2023/05/30 14:42:43;;;;;;;8.82;3.65;;;;;;;;;;4947335;28;20907;-44
2023/05/30 14:45:11;;;;;;;10.10;3.23;;;;;;;;;;4955074;28;20528;-45
2023/05/30 14:47:40;;;;;;;8.20;3.60;;;;;;;;;;4953253;28;20389;-44
2023/05/30 14:50:11;;;;;;;10.07;3.22;;;;;;;;;;4958085;28;20043;-45
2023/05/30 14:52:39;;;;;;;9.20;3.60;;;;;;;;;;4964144;28;20137;-44